• Join FlightAware (Why Join?)
  • Login
  • US Flag 
07:14PM EST


 

Airport Tracker/Info


-or-


 

Live Flight TrackerFlight Track Log ✈ RPA3380 ✈ 28-Apr-2014 ✈ KIND - KPHL

Flight Track Log - Related Links

Times and Time Zones

All times are in EDT time to prevent confusion due to time zone crossing. See the RPA3380 flight status page for this flight to view local times or setup timezone preferences in your user account.

Time Position Orientation Groundspeed Altitude Reporting Facility
EDT Latitude Longitude Course Direction KTS MPH feet Rate Location/Type
06:09PM 39.7000 -86.3000 201° Southwest 166 191 1,500  Level Indianapolis TRACON
06:09PM 39.6667 -86.3167 201° Southwest 171 197 2,300 2,040 Climbing Indianapolis TRACON
06:10PM 39.6167 -86.3167 180° South 251 289 4,600 2,460 Climbing Indianapolis TRACON
06:11PM 39.6214 -86.2675 83° East 268 308 6,400 3,000 Climbing Indianapolis Center
06:12PM 39.6703 -86.1800 54° Northeast 298 343 9,600 2,700 Climbing Indianapolis Center
06:13PM 39.7131 -86.0450 68° East 350 403 12,000 2,160 Climbing Indianapolis Center
06:14PM 39.7406 -85.9181 74° East 364 419 14,100 1,980 Climbing Indianapolis Center
06:15PM 39.7714 -85.7767 74° East 399 459 16,200 2,340 Climbing Indianapolis Center
06:16PM 39.8011 -85.6361 75° East 405 466 19,000 2,400 Climbing Indianapolis Center
06:17PM 39.8311 -85.4917 75° East 410 472 21,200 2,100 Climbing Indianapolis Center
06:18PM 39.8689 -85.3144 74° East 421 484 23,400 1,980 Climbing Indianapolis Center
06:19PM 39.8900 -85.1628 80° East 428 493 25,400 2,220 Climbing Indianapolis Center
06:20PM 39.8947 -85.0175 88° East 408 470 28,000 1,800 Climbing Indianapolis Center
06:21PM 39.9036 -84.8600 86° East 397 457 29,200 1,080 Climbing Indianapolis Center
06:22PM 39.9117 -84.7089 86° East 411 473 30,300 840 Climbing Indianapolis Center
06:23PM 39.9189 -84.5542 86° East 425 489 31,000 300 Climbing Indianapolis Center
06:24PM 39.9269 -84.3997 86° East 427 491 31,000  Level Indianapolis Center
06:25PM 39.9350 -84.2464 86° East 426 490 31,000  Level Indianapolis Center
06:26PM 39.9542 -84.0911 81° East 429 494 31,000  Level Indianapolis Center
06:27PM 39.9758 -83.9364 80° East 432 497 31,000  Level Indianapolis Center
06:28PM 40.0006 -83.7497 80° East 432 497 31,000  Level Indianapolis Center
06:29PM 40.0217 -83.5944 80° East 432 497 31,000  Level Indianapolis Center
06:30PM 40.0428 -83.4361 80° East 432 497 31,000  Level Indianapolis Center
06:31PM 40.0633 -83.2775 80° East 434 499 31,000  Level Indianapolis Center
06:32PM 40.0833 -83.1200 81° East 435 501 31,000  Level Indianapolis Center
06:33PM 40.1039 -82.9625 80° East 436 502 31,000  Level Indianapolis Center
06:34PM 40.1239 -82.8075 80° East 436 502 31,000  Level Indianapolis Center
06:36PM 40.1433 -82.6528 81° East 436 502 31,000 180 Level Indianapolis Center
06:37PM 40.1586 -82.4628 84° East 436 502 31,400 840 Climbing Indianapolis Center
06:38PM 40.1675 -82.2997 86° East 444 511 32,800 720 Climbing Indianapolis Center
06:39PM 40.1775 -82.1403 85° East 444 511 33,000 60 Climbing Indianapolis Center
06:40PM 40.1856 -81.9806 86° East 443 510 33,000  Level Indianapolis Center
06:41PM 40.1933 -81.8519 85° East 443 510 33,000  Level Cleveland Center
06:42PM 40.2017 -81.6750 86° East 443 510 33,000  Level Cleveland Center
06:43PM 40.2100 -81.5150 86° East 443 510 33,000  Level Cleveland Center
06:44PM 40.2189 -81.3558 86° East 443 510 33,000  Level Cleveland Center
06:45PM 40.2286 -81.1628 86° East 444 511 33,000  Level Cleveland Center
06:46PM 40.2361 -81.0025 86° East 444 511 33,000  Level Cleveland Center
06:47PM 40.2436 -80.8444 86° East 443 510 33,000  Level Cleveland Center
06:48PM 40.2503 -80.6853 87° East 441 507 33,000  Level Cleveland Center
06:49PM 40.2572 -80.5261 87° East 441 507 33,000  Level Cleveland Center
06:50PM 40.2644 -80.3344 87° East 441 507 33,000  Level Cleveland Center
06:51PM 40.2700 -80.1747 87° East 442 509 33,000  Level Cleveland Center
06:52PM 40.2761 -80.0194 87° East 444 511 33,000  Level Cleveland Center
06:53PM 40.2822 -79.8597 87° East 444 511 33,000  Level Cleveland Center
06:54PM 40.2894 -79.6675 87° East 445 512 33,000  Level Cleveland Center
06:55PM 40.2950 -79.5050 87° East 447 514 33,000  Level Cleveland Center
06:56PM 40.3508 -79.3639 63° Northeast 450 518 33,000  Level Cleveland Center
06:57PM 40.4397 -79.2525 44° Northeast 436 502 33,000  Level Cleveland Center
06:58PM 40.5203 -79.1356 48° Northeast 445 512 33,000  Level Cleveland Center
06:59PM 40.5281 -78.9772 86° East 452 520 33,000  Level Cleveland Center
07:00PM 40.4369 -78.8306 129° Southeast 439 505 33,000  Level Cleveland Center
07:01PM 40.3506 -78.7175 135° Southeast 439 505 33,000  Level Cleveland Center
07:02PM 40.2644 -78.6047 135° Southeast 441 507 33,000 -240 Level Cleveland Center
07:03PM 40.1772 -78.4906 135° Southeast 442 509 32,600 -1,200 Descending Cleveland Center
07:04PM 40.0814 -78.3208 126° Southeast 505 581 30,600 -1,920 Descending Cleveland Center
07:05PM 40.0839 -78.1444 89° East 495 570 28,700 -2,280 Descending Cleveland Center
07:06PM 40.1178 -77.9764 75° East 487 560 25,900 -1,920 Descending Cleveland Center
07:07PM 40.1547 -77.7964 75° East 462 532 24,800 -1,800 Descending Cleveland Center
07:08PM 40.1869 -77.6392 75° East 452 520 22,200 -2,580 Descending Cleveland Center
07:09PM 40.2181 -77.4858 75° East 440 506 19,500 -2,520 Descending Cleveland Center
07:11PM 40.2475 -77.3389 75° East 424 488 17,000 -1,260 Descending Cleveland Center
07:12PM 40.2794 -77.1783 75° East 413 475 17,000  Level New York Center
07:13PM 40.2917 -77.0272 84° East 413 475 17,000  Level New York Center
07:14PM 40.2611 -76.8939 107° East 407 468 17,000 -240 Level New York Center
07:15PM 40.2233 -76.7356 107° East 418 481 16,600 -1,140 Descending New York Center
07:16PM 40.1928 -76.5942 106° East 412 474 14,800 -1,920 Descending New York Center
07:17PM 40.1650 -76.4778 107° East 388 447 12,800 -1,380 Descending New York Center
07:18PM 40.1375 -76.3614 107° East 351 404 12,100 -960 Descending New York Center
07:19PM 40.1178 -76.2458 103° East 306 352 11,000 -600 Descending New York Center
07:20PM 40.1103 -76.1367 95° East 299 344 11,000  Level New York Center
07:21PM 40.1028 -76.0247 95° East 299 344 11,000 -300 Level New York Center
07:22PM 40.0947 -75.9264 96° East 299 344 10,400 -1,200 Descending New York Center
07:23PM 40.0831 -75.8089 97° East 299 344 8,700 -1,200 Descending New York Center
07:24PM 40.0950 -75.7203 80° East 280 322 8,000 -360 Descending New York Center
07:25PM 40.1342 -75.6361 59° Northeast 251 289 8,000  Level New York Center
07:26PM 40.1661 -75.5650 60° Northeast 245 282 8,000  Level New York Center
07:27PM 40.2028 -75.4861 59° Northeast 239 275 8,000 -120 Level New York Center
07:28PM 40.2183 -75.4083 75° East 230 265 7,800 -540 Descending New York Center
07:29PM 40.1683 -75.3561 141° Southeast 189 217 7,000 -420 Descending New York Center
07:30PM 40.1283 -75.3072 137° Southeast 209 241 7,000  Level New York Center
07:31PM 40.0889 -75.2531 134° Southeast 216 249 7,000 -240 Level New York Center
07:32PM 40.0367 -75.2008 143° Southeast 216 249 6,600 -480 Descending New York Center
07:33PM 39.9894 -75.1789 160° South 205 236 6,100 -600 Descending New York Center
07:34PM 39.9883 -75.1003 91° East 175 201 5,500 -600 Descending New York Center
07:35PM 40.0008 -75.0389 75° East 181 208 5,000 -1,020 Descending New York Center
07:36PM 39.9803 -74.9725 112° Southeast 178 205 3,500 -1,020 Descending New York Center
07:37PM 39.9333 -74.9667 175° South 193 222 3,000 -300 Descending Philadelphia TRACON
07:37PM 39.9167 -75.0167 247° West 185 213 3,000 -540 Level Philadelphia TRACON
07:39PM 39.9000 -75.1000 255° West 183 211 2,000 -960 Descending Philadelphia TRACON
07:40PM 39.8833 -75.1500 247° West 154 177 1,100 -780 Descending Philadelphia TRACON
07:41PM 39.8833 -75.2000 270° West 141 162 400 -660 Descending Philadelphia TRACON
07:43PM 39.8667 -75.2333 247° West  Level FlightAware Approximate